Latest Weather Observations for Archerfield

IDQ60801

Issued at 3:32 pm EST Sunday 26 February 2017 (issued every 30 minutes, with the page automatically refreshed every 10 minutes)

About weather observations | Map of weather stations | Latest weather observations for QLD | Other Formats
Station Details ID: 040211 Name: ARCHERFIELD AIRPORT Lat: -27.57 Lon: 153.01 Height: 12.5 m
Data from the previous 72 hours. | See also: Recent months at Archerfield
Date/Time
EST
Temp
°C
App
Temp
°C
Dew
Point
°C
Rel
Hum
%
Delta-T
°C
Wind Press
QNH
hPa
Press
MSL
hPa
Rain since
9am
mm
Dir  Spd
km/h
Gust
km/h
Spd
kts
Gust
kts
26/03:00pm 29.6 25.1 15.3 41 8.8 ESE 33 44 18 24 1013.9 1013.8 0.0
26/02:30pm 29.6 25.6 15.3 41 8.8 ESE 30 39 16 21 1014.0 1013.9 0.0
26/02:00pm 29.8 26.6 17.3 47 7.9 ESE 30 41 16 22 1014.1 1014.0 0.0
26/01:30pm 29.6 27.7 16.8 46 8.0 ESE 22 32 12 17 1014.5 1014.4 0.0
26/01:00pm 29.4 26.9 16.2 44 8.2 ESE 24 37 13 20 1014.7 1014.6 0.0
26/12:30pm 30.6 28.7 16.6 43 8.8 E 22 35 12 19 1015.0 1014.9 0.0
26/12:00pm 30.7 29.2 16.3 42 9.0 E 19 30 10 16 1015.3 1015.2 0.0
26/11:30am 30.2 28.6 15.9 42 8.9 SE 19 28 10 15 1015.6 1015.5 0.0
26/11:00am 28.8 27.2 16.0 45 7.9 SE 19 26 10 14 1015.8 1015.7 0.0
26/10:30am 28.6 27.2 16.5 48 7.5 SSE 19 30 10 16 1016.2 1016.1 0.0
26/10:00am 27.5 27.1 17.1 53 6.5 S 15 20 8 11 1016.5 1016.4 0.0
26/09:30am 26.3 25.0 16.8 56 5.9 SSE 19 24 10 13 1016.5 1016.4 0.0
26/09:00am 25.8 24.9 16.9 58 5.5 SSE 17 20 9 11 1016.3 1016.2 0.0
26/08:30am 26.1 25.3 17.2 58 5.6 SSE 17 24 9 13 1016.2 1016.1 0.0
26/08:00am 24.7 24.6 16.9 62 4.8 S 13 17 7 9 1016.0 1015.9 0.0
26/07:30am 23.8 23.6 16.8 65 4.3 SSW 13 17 7 9 1015.6 1015.5 0.0
26/07:00am 22.7 23.3 16.7 69 3.7 S 9 15 5 8 1015.6 1015.5 0.0
26/06:30am 21.4 22.0 16.8 75 2.8 SSW 9 13 5 7 1015.6 1015.5 0.0
26/06:00am 18.5 19.4 15.2 81 1.9 SW 4 7 2 4 1015.2 1015.1 0.0
26/05:30am 20.2 20.6 16.2 78 2.4 S 9 11 5 6 1014.7 1014.6 0.0
26/05:00am 20.2 20.6 16.2 78 2.4 SSW 9 11 5 6 1014.4 1014.3 0.0
26/04:30am 20.4 20.8 16.2 77 2.5 S 9 13 5 7 1014.0 1013.9 0.0
26/04:00am 20.5 20.8 15.9 75 2.7 S 9 13 5 7 1013.8 1013.7 0.0
26/03:30am 20.7 21.3 15.9 74 2.9 SSW 7 9 4 5 1014.0 1013.9 0.0
26/03:00am 21.3 20.8 15.8 71 3.3 S 13 15 7 8 1014.1 1014.0 0.0
26/02:30am 21.3 20.8 15.8 71 3.3 SSW 13 17 7 9 1014.3 1014.2 0.0
26/02:00am 20.8 20.9 15.4 71 3.2 SSW 9 13 5 7 1014.4 1014.3 0.0
26/01:30am 21.3 21.4 15.4 69 3.5 SSW 9 11 5 6 1014.4 1014.3 0.0
26/01:00am 21.2 21.2 15.3 69 3.5 SSW 9 11 5 6 1014.8 1014.7 0.0
26/12:30am 21.7 21.3 15.3 67 3.8 S 11 13 6 7 1015.1 1015.0 0.0
26/12:00am 21.8 21.5 15.4 67 3.8 S 11 13 6 7 1015.8 1015.7 0.0
 
Date/Time
EST
Temp
°C
App
Temp
°C
Dew
Point
°C
Rel
Hum
%
Delta-T
°C
Wind Press
QNH
hPa
Press
MSL
hPa
Rain since
9am
mm
Dir  Spd
km/h
Gust
km/h
Spd
kts
Gust
kts
25/11:30pm 22.0 21.8 15.6 67 3.8 S 11 13 6 7 1016.0 1015.9 0.0
25/11:00pm 22.5 21.8 15.4 64 4.2 S 13 15 7 8 1016.3 1016.2 0.0
25/10:30pm 23.0 23.0 15.3 62 4.6 S 9 13 5 7 1016.5 1016.4 0.0
25/10:00pm 23.3 22.6 15.4 61 4.7 S 13 19 7 10 1016.4 1016.3 0.0
25/09:30pm 23.8 22.0 15.6 60 4.9 SSE 19 26 10 14 1016.2 1016.1 0.0
25/09:00pm 24.3 21.7 15.8 59 5.1 SE 24 32 13 17 1016.0 1015.9 0.0
25/08:30pm 24.4 22.9 16.4 61 4.9 SE 19 28 10 15 1015.9 1015.8 0.0
25/08:00pm 24.5 23.2 16.7 61 4.8 SE 19 26 10 14 1015.5 1015.4 0.0
25/07:30pm 24.8 23.0 17.0 62 4.8 ESE 22 35 12 19 1015.0 1014.9 0.0
25/07:00pm 25.0 23.7 17.2 62 4.8 ESE 20 32 11 17 1014.7 1014.6 0.0
25/06:30pm 25.5 23.5 17.4 61 5.1 ESE 24 39 13 21 1014.3 1014.2 0.0
25/06:00pm 26.3 23.9 17.4 58 5.6 ESE 26 39 14 21 1013.8 1013.7 0.0
25/05:30pm 27.0 23.4 17.2 55 6.1 ESE 32 43 17 23 1013.5 1013.4 0.0
25/05:00pm 27.8 24.4 17.6 53 6.4 ESE 32 41 17 22 1013.2 1013.1 0.0
25/04:30pm 28.7 25.3 17.6 51 7.0 ESE 32 41 17 22 1013.2 1013.1 0.0
25/04:00pm 29.1 26.4 17.6 50 7.3 ESE 28 37 15 20 1013.1 1013.0 0.0
25/03:30pm 29.7 27.3 18.2 50 7.4 ESE 28 39 15 21 1012.9 1012.8 0.0
25/03:00pm 31.2 29.9 18.2 46 8.4 E 22 33 12 18 1012.9 1012.8 0.0
25/02:30pm 31.5 29.9 16.6 40 9.4 ESE 20 28 11 15 1013.1 1013.0 0.0
25/02:00pm 31.8 30.2 14.9 36 10.4 ESE 17 26 9 14 1013.4 1013.3 0.0
25/01:30pm 31.0 28.7 14.6 37 10.0 ESE 20 32 11 17 1013.8 1013.7 0.0
25/01:00pm 31.2 30.6 15.6 39 9.7 ESE 13 22 7 12 1014.3 1014.2 0.0
25/12:30pm 29.6 28.0 13.8 38 9.5 ESE 15 28 8 15 1014.8 1014.7 0.0
25/12:00pm 29.6 28.9 14.2 39 9.3 SSE 11 19 6 10 1015.1 1015.0 0.0
25/11:30am 28.7 27.1 13.8 40 8.9 SE 15 30 8 16 1015.5 1015.4 0.0
25/11:00am 29.2 29.0 14.6 41 8.8 E 9 17 5 9 1016.0 1015.9 0.0
25/10:30am 28.9 27.6 15.8 45 8.1 S 17 28 9 15 1016.4 1016.3 0.0
25/10:00am 27.6 26.1 15.3 47 7.5 SSE 17 26 9 14 1016.8 1016.7 0.0
25/09:30am 27.6 26.6 15.6 48 7.3 S 15 22 8 12 1017.0 1016.9 0.0
25/09:00am 26.1 25.8 15.5 52 6.4 SSE 11 17 6 9 1017.2 1017.1 0.0
25/08:30am 25.5 24.6 14.9 52 6.4 S 13 19 7 10 1017.1 1017.0 0.0
25/08:00am 24.7 25.0 16.9 62 4.8 S 11 17 6 9 1017.2 1017.1 0.0
25/07:30am 23.3 23.8 17.5 70 3.6 S 11 15 6 8 1017.1 1017.0 0.0
25/07:00am 21.5 22.2 17.1 76 2.7 SSW 9 13 5 7 1017.0 1016.9 0.0
25/06:30am 19.6 20.7 17.0 85 1.6 SW 7 9 4 5 1016.8 1016.7 0.0
25/06:00am 17.7 18.3 15.3 86 1.4 SSW 6 7 3 4 1016.7 1016.6 0.0
25/05:30am 19.1 19.6 16.5 85 1.6 S 9 11 5 6 1016.3 1016.2 0.0
25/05:00am 19.3 19.9 16.7 85 1.6 S 9 13 5 7 1016.3 1016.2 0.0
25/04:30am 19.3 19.8 16.5 84 1.7 S 9 11 5 6 1016.0 1015.9 0.0
25/04:00am 19.6 19.8 16.8 84 1.7 S 11 15 6 8 1015.9 1015.8 0.0
25/03:30am 19.9 19.8 16.9 83 1.8 S 13 15 7 8 1015.6 1015.5 0.0
25/03:00am 20.1 20.0 16.9 82 1.9 S 13 17 7 9 1015.5 1015.4 0.0
25/02:30am 20.2 20.5 17.0 82 1.9 SSW 11 11 6 6 1015.5 1015.4 0.0
25/02:00am 20.3 20.9 16.9 81 2.1 SSW 9 11 5 6 1015.7 1015.6 0.0
25/01:30am 20.6 21.4 17.2 81 2.1 S 9 9 5 5 1015.8 1015.7 0.0
25/01:00am 20.4 21.5 17.2 82 2.0 SSW 7 9 4 5 1015.9 1015.8 0.0
25/12:30am 21.8 23.2 17.4 76 2.7 SE 6 7 3 4 1016.0 1015.9 0.0
25/12:00am 21.7 22.9 17.3 76 2.7 S 7 9 4 5 1016.4 1016.3 0.0
 
Date/Time
EST
Temp
°C
App
Temp
°C
Dew
Point
°C
Rel
Hum
%
Delta-T
°C
Wind Press
QNH
hPa
Press
MSL
hPa
Rain since
9am
mm
Dir  Spd
km/h
Gust
km/h
Spd
kts
Gust
kts
24/11:30pm 21.6 22.9 17.6 78 2.5 S 7 9 4 5 1016.6 1016.5 0.0
24/11:00pm 21.7 23.0 17.1 75 2.8 NE 6 7 3 4 1016.6 1016.5 0.0
24/10:30pm 22.6 24.0 17.7 74 3.0 ENE 7 7 4 4 1016.9 1016.8 0.0
24/10:00pm 23.4 24.2 18.1 72 3.3 E 11 17 6 9 1016.9 1016.8 0.0
24/09:30pm 23.2 23.9 17.9 72 3.3 ENE 11 15 6 8 1017.1 1017.0 0.0
24/09:00pm 23.9 24.7 18.1 70 3.6 E 11 17 6 9 1017.2 1017.1 0.0
24/08:30pm 24.2 24.6 18.2 69 3.8 E 13 19 7 10 1017.3 1017.2 0.0
24/08:00pm 24.3 24.7 18.2 68 3.8 E 13 20 7 11 1017.2 1017.1 0.0
24/07:30pm 24.7 24.0 18.2 67 4.1 E 19 24 10 13 1017.0 1016.9 0.0
24/07:00pm 25.0 24.1 17.7 64 4.6 E 19 24 10 13 1016.7 1016.6 0.0
24/06:30pm 25.5 23.8 17.2 60 5.2 ESE 22 28 12 15 1016.4 1016.3 0.0
24/06:00pm 26.4 25.0 16.9 56 5.9 E 20 30 11 16 1016.1 1016.0 0.0
24/05:30pm 27.6 26.3 16.9 52 6.7 E 19 24 10 13 1015.8 1015.7 0.0
24/05:00pm 28.7 26.5 16.9 48 7.4 E 24 32 13 17 1015.5 1015.4 0.0
24/04:30pm 29.6 27.8 16.1 44 8.4 E 20 30 11 16 1015.3 1015.2 0.0
24/04:00pm 30.0 27.2 16.4 44 8.5 ESE 26 35 14 19 1015.2 1015.1 0.0
24/03:30pm 31.0 29.1 15.8 40 9.4 E 20 32 11 17 1015.1 1015.0 0.0
24/03:00pm 32.0 30.6 14.6 34 10.7 ESE 15 24 8 13 1015.1 1015.0 0.0
24/02:30pm 30.8 29.0 14.4 36 10.0 SE 17 28 9 15 1015.5 1015.4 0.0
24/02:00pm 30.9 29.4 14.1 36 10.2 ESE 15 24 8 13 1015.7 1015.6 0.0
24/01:30pm 31.1 29.2 14.3 36 10.2 E 17 22 9 12 1016.0 1015.9 0.0
24/01:00pm 31.6 30.6 14.7 36 10.3 E 13 26 7 14 1016.3 1016.2 0.0
24/12:30pm 30.4 29.0 14.5 38 9.7 ESE 15 28 8 15 1016.8 1016.7 0.0
24/12:00pm 30.5 29.8 15.4 40 9.3 E 13 24 7 13 1017.3 1017.2 0.0
24/11:30am 30.4 29.5 14.9 39 9.5 E 13 19 7 10 1017.6 1017.5 0.0
24/11:00am 30.7 30.0 16.3 42 9.0 ESE 15 30 8 16 1018.1 1018.0 0.0
24/10:30am 27.8 27.6 15.8 48 7.4 SSE 11 19 6 10 1018.4 1018.3 0.0
24/10:00am 27.1 26.7 16.1 51 6.8 ESE 13 17 7 9 1018.8 1018.7 0.0
24/09:30am 27.5 27.0 16.8 52 6.7 ESE 15 26 8 14 1019.0 1018.9 0.0
24/09:00am 26.6 25.6 16.5 54 6.2 SSE 17 22 9 12 1019.0 1018.9 0.0
24/08:30am 25.6 25.1 17.0 59 5.3 SSE 15 19 8 10 1019.1 1019.0 0.0
24/08:00am 24.0 23.8 16.8 64 4.4 S 13 17 7 9 1018.9 1018.8 0.0
24/07:30am 22.5 23.3 17.2 72 3.3 S 9 15 5 8 1018.9 1018.8 0.0
24/07:00am 21.3 23.4 16.3 73 3.0 CALM 0 0 0 0 1018.6 1018.5 0.0
24/06:30am 19.7 21.4 16.3 81 2.0 S 2 6 1 3 1018.4 1018.3 0.0
24/06:00am 18.8 19.7 16.2 85 1.5 S 6 9 3 5 1017.9 1017.8 0.0
24/05:30am 18.3 19.0 15.7 85 1.5 S 6 7 3 4 1017.6 1017.5 0.0
24/05:00am 18.2 18.8 15.8 86 1.4 SSW 7 11 4 6 1017.2 1017.1 0.0
24/04:30am 17.5 18.7 15.0 85 1.5 SSW 2 7 1 4 1017.1 1017.0 0.0
24/04:00am 18.5 19.1 15.7 84 1.7 S 7 11 4 6 1017.2 1017.1 0.0
24/03:30am 19.0 19.8 16.4 85 1.6 S 7 9 4 5 1017.3 1017.2 0.0
24/03:00am 18.5 19.2 15.6 83 1.7 S 6 7 3 4 1017.4 1017.3 0.0
24/02:30am 19.1 19.8 15.6 80 2.1 SW 6 6 3 3 1017.4 1017.3 0.0
24/02:00am 19.5 21.4 16.7 84 1.7 SW 2 7 1 4 1017.5 1017.4 0.0
24/01:30am 20.2 21.1 16.6 80 2.2 SSW 7 9 4 5 1017.7 1017.6 0.0
24/01:00am 20.5 21.5 16.9 80 2.2 SSW 7 9 4 5 1017.9 1017.8 0.0
24/12:30am 20.9 22.1 17.3 80 2.2 SW 7 9 4 5 1018.1 1018.0 0.0
24/12:00am 21.2 22.3 17.0 77 2.6 S 7 9 4 5 1018.3 1018.2 0.0
 
Date/Time
EST
Temp
°C
App
Temp
°C
Dew
Point
°C
Rel
Hum
%
Delta-T
°C
Wind Press
QNH
hPa
Press
MSL
hPa
Rain since
9am
mm
Dir  Spd
km/h
Gust
km/h
Spd
kts
Gust
kts
23/11:30pm 21.6 22.8 17.4 77 2.6 S 7 9 4 5 1018.6 1018.5 0.0
23/11:00pm 22.6 24.2 17.9 75 2.9 SSE 6 7 3 4 1018.8 1018.7 0.0
23/10:30pm 22.8 23.9 17.9 74 3.1 SE 9 13 5 7 1018.9 1018.8 0.0
23/10:00pm 23.3 25.0 18.4 74 3.1 SE 7 11 4 6 1019.1 1019.0 0.0
23/09:30pm 23.5 24.7 18.2 72 3.3 SE 9 11 5 6 1019.0 1018.9 0.0
23/09:00pm 23.9 24.4 18.3 71 3.5 ESE 13 22 7 12 1019.0 1018.9 0.0
23/08:30pm 24.3 24.5 18.5 70 3.7 ESE 15 24 8 13 1019.0 1018.9 0.0
23/08:00pm 24.5 23.8 18.2 68 4.0 ESE 19 26 10 14 1018.7 1018.6 0.0
23/07:30pm 24.8 23.8 18.0 66 4.3 ESE 20 30 11 16 1018.5 1018.4 0.0
23/07:00pm 25.0 23.1 17.7 64 4.6 ESE 24 37 13 20 1018.3 1018.2 0.0
23/06:30pm 25.6 24.0 17.5 61 5.1 E 22 30 12 16 1017.9 1017.8 0.0
23/06:00pm 26.4 25.0 16.6 55 6.1 ESE 19 28 10 15 1017.6 1017.5 0.0
23/05:30pm 27.3 24.6 15.7 49 7.1 ESE 24 32 13 17 1017.3 1017.2 0.0
23/05:00pm 28.2 24.8 15.8 47 7.6 ESE 28 35 15 19 1016.9 1016.8 0.0
23/04:30pm 28.7 26.1 15.9 45 7.9 E 24 33 13 18 1016.7 1016.6 0.0
23/04:00pm 29.5 27.3 16.0 44 8.4 E 22 32 12 17 1016.6 1016.5 0.0

Other Formats:

Comma delimited format used in spreadsheet applications
http://www.bom.gov.au/fwo/IDQ60801/IDQ60801.94575.axf

JavaScript Object Notation format (JSON) in row-major order
http://www.bom.gov.au/fwo/IDQ60801/IDQ60801.94575.json